Time;durP1;ratioP1;P1;durP2;ratioP2;P2;SDS_P1;SDS_P2;PMS_P1;PMS_P2;Temp;Humidity;BMP_temperature;BMP_pressure;BME280_temperature;BME280_humidity;BME280_pressure;Samples;Min_cycle;Max_cycle;Signal;HPM_P1;HPM_P2
2023/04/04 00:01:19;;;;;;;4.50;1.57;;;6.10;98.00;;;;;;5049167;28;20200;-32
2023/04/04 00:03:50;;;;;;;2.87;1.70;;;6.00;98.00;;;;;;5048874;28;20220;-32
2023/04/04 00:06:18;;;;;;;3.47;1.43;;;6.10;98.10;;;;;;5048385;28;20224;-32
2023/04/04 00:08:46;;;;;;;4.13;1.47;;;6.00;98.10;;;;;;5048933;28;20215;-32
2023/04/04 00:11:13;;;;;;;5.07;1.87;;;6.00;98.10;;;;;;5047223;28;20298;-33
2023/04/04 00:13:40;;;;;;;2.73;1.70;;;6.00;98.20;;;;;;5046944;28;20203;-31
2023/04/04 00:16:10;;;;;;;4.20;1.70;;;5.90;98.10;;;;;;5046346;28;20560;-33
2023/04/04 00:18:37;;;;;;;3.80;1.80;;;6.00;98.20;;;;;;5047080;28;20298;-33
2023/04/04 00:21:07;;;;;;;2.50;1.70;;;5.90;98.20;;;;;;5047147;28;20204;-33
2023/04/04 00:23:36;;;;;;;4.60;1.80;;;5.90;98.20;;;;;;5047371;28;20192;-33
2023/04/04 00:26:04;;;;;;;4.87;1.70;;;5.90;98.10;;;;;;5046893;28;20299;-33
2023/04/04 00:28:33;;;;;;;2.77;1.93;;;5.90;98.20;;;;;;5048491;28;20236;-33
2023/04/04 00:31:01;;;;;;;4.73;1.73;;;5.80;98.20;;;;;;5048118;28;20299;-33
2023/04/04 00:33:28;;;;;;;4.80;1.90;;;5.90;98.30;;;;;;5048080;28;20307;-33
2023/04/04 00:35:58;;;;;;;3.67;1.80;;;5.80;98.20;;;;;;5046652;28;20228;-34
2023/04/04 00:38:28;;;;;;;4.50;1.80;;;5.80;98.20;;;;;;5048614;28;20193;-32
2023/04/04 00:40:56;;;;;;;3.00;1.50;;;5.80;98.20;;;;;;5048267;28;20197;-32
2023/04/04 00:43:23;;;;;;;4.17;2.03;;;5.70;98.50;;;;;;5048065;28;20192;-32
2023/04/04 00:45:51;;;;;;;4.67;2.13;;;5.70;98.10;;;;;;5048314;28;20307;-32
2023/04/04 00:48:20;;;;;;;3.23;1.70;;;5.70;98.20;;;;;;5046705;28;20240;-32
2023/04/04 00:50:49;;;;;;;4.23;2.10;;;5.60;98.20;;;;;;5046565;28;20308;-32
2023/04/04 00:53:16;;;;;;;5.30;1.90;;;5.60;98.20;;;;;;5047864;28;20211;-33
2023/04/04 00:55:46;;;;;;;6.43;1.67;;;5.60;98.20;;;;;;5047979;28;20656;-31
2023/04/04 00:58:16;;;;;;;5.20;1.90;;;5.60;98.20;;;;;;5044388;28;20987;-32
2023/04/04 01:00:50;;;;;;;3.40;1.87;;;5.60;98.20;;;;;;5028287;28;20373;-33
2023/04/04 01:03:18;;;;;;;5.87;2.17;;;5.60;98.20;;;;;;5034738;28;20299;-32
2023/04/04 01:05:47;;;;;;;4.13;2.07;;;5.50;98.10;;;;;;5045793;28;20299;-31
2023/04/04 01:08:20;;;;;;;4.47;1.70;;;5.50;98.10;;;;;;5015748;28;20212;-32
2023/04/04 01:10:50;;;;;;;5.17;1.93;;;5.50;98.20;;;;;;5048288;28;20220;-32
2023/04/04 01:13:17;;;;;;;4.20;2.10;;;5.50;98.20;;;;;;5045883;28;20212;-31
2023/04/04 01:15:50;;;;;;;5.67;2.27;;;5.50;98.10;;;;;;5035215;28;20302;-33
2023/04/04 01:18:21;;;;;;;5.50;2.00;;;5.40;98.10;;;;;;5043309;28;20211;-32
2023/04/04 01:21:12;;;;;;;5.97;2.10;;;5.50;98.10;;;;;;5045739;28;20247;-32
2023/04/04 01:23:45;;;;;;;6.10;2.30;;;5.50;98.10;;;;;;5025280;28;20760;-33
2023/04/04 01:26:13;;;;;;;4.33;1.70;;;5.40;98.10;;;;;;5040040;28;20203;-32
2023/04/04 01:28:42;;;;;;;4.17;1.97;;;5.40;98.10;;;;;;5046668;28;20212;-34
2023/04/04 01:31:18;;;;;;;3.73;1.97;;;5.40;98.10;;;;;;5046211;28;20218;-33
2023/04/04 01:34:05;;;;;;;6.93;2.27;;;5.40;98.10;;;;;;5043848;28;20203;-33
2023/04/04 01:36:39;;;;;;;5.77;1.80;;;5.40;98.10;;;;;;5045083;28;20207;-33
2023/04/04 01:39:33;;;;;;;6.20;2.20;;;5.30;98.10;;;;;;5046586;28;20742;-33
2023/04/04 01:42:02;;;;;;;2.97;1.67;;;5.30;98.10;;;;;;5046349;28;20212;-33
2023/04/04 01:44:32;;;;;;;4.10;2.00;;;5.30;98.10;;;;;;5046712;28;20216;-33
2023/04/04 01:47:03;;;;;;;3.70;1.93;;;5.30;98.10;;;;;;5046449;28;20251;-33
2023/04/04 01:49:32;;;;;;;4.10;2.23;;;5.30;98.10;;;;;;5045127;28;20224;-33
2023/04/04 01:51:59;;;;;;;3.83;2.20;;;5.30;98.10;;;;;;5046490;28;20200;-33
2023/04/04 01:54:32;;;;;;;5.73;2.03;;;5.30;98.10;;;;;;5046049;28;20210;-33
2023/04/04 01:57:03;;;;;;;3.13;1.60;;;5.30;98.10;;;;;;5046174;28;20214;-33
2023/04/04 01:59:30;;;;;;;4.50;2.00;;;5.30;98.10;;;;;;5046270;28;20693;-33
2023/04/04 02:02:00;;;;;;;5.23;2.13;;;5.20;98.10;;;;;;5046294;28;20726;-32
2023/04/04 02:04:28;;;;;;;4.10;1.87;;;5.20;98.00;;;;;;5044566;28;20196;-32
2023/04/04 02:06:58;;;;;;;5.47;2.10;;;5.20;98.10;;;;;;5046360;28;20702;-32
2023/04/04 02:09:26;;;;;;;3.80;2.07;;;5.20;98.10;;;;;;5045873;28;20199;-32
2023/04/04 02:11:53;;;;;;;3.27;1.87;;;5.20;98.00;;;;;;5027939;28;20196;-32
2023/04/04 02:14:25;;;;;;;5.33;2.27;;;5.10;98.00;;;;;;5046700;28;20216;-32
2023/04/04 02:16:54;;;;;;;6.40;2.70;;;5.10;98.00;;;;;;5046366;28;20629;-33
2023/04/04 02:19:24;;;;;;;4.63;2.77;;;5.10;98.10;;;;;;5046822;28;20417;-32
2023/04/04 02:21:51;;;;;;;4.60;2.70;;;5.10;98.10;;;;;;5045009;28;20208;-32
2023/04/04 02:24:21;;;;;;;5.17;2.73;;;5.00;98.10;;;;;;5028521;28;20293;-33
2023/04/04 02:26:48;;;;;;;5.80;2.77;;;5.00;98.00;;;;;;5046118;28;20329;-33
2023/04/04 02:29:15;;;;;;;7.27;2.73;;;5.00;98.10;;;;;;5046177;28;20613;-33
2023/04/04 02:31:45;;;;;;;4.57;2.50;;;5.00;98.10;;;;;;5045133;28;20258;-33
2023/04/04 02:34:12;;;;;;;4.80;2.20;;;5.00;98.10;;;;;;5046131;28;20745;-32
2023/04/04 02:36:41;;;;;;;6.03;2.50;;;4.90;98.00;;;;;;5046468;28;20258;-33
2023/04/04 02:39:09;;;;;;;4.57;2.23;;;4.90;98.00;;;;;;5044998;28;20200;-33
2023/04/04 02:41:38;;;;;;;3.17;1.90;;;4.90;98.00;;;;;;5046285;28;20216;-33
2023/04/04 02:44:08;;;;;;;6.60;2.30;;;4.80;98.00;;;;;;5046195;28;21159;-32
2023/04/04 02:46:38;;;;;;;6.53;2.90;;;4.80;98.00;;;;;;5049029;28;20214;-32
2023/04/04 02:49:07;;;;;;;6.70;2.40;;;4.80;98.00;;;;;;5050830;28;20211;-33
2023/04/04 02:51:35;;;;;;;5.27;2.70;;;4.80;98.00;;;;;;5048726;28;20675;-33
2023/04/04 02:54:07;;;;;;;7.60;2.43;;;4.80;98.00;;;;;;5050627;28;20714;-33
2023/04/04 02:56:38;;;;;;;5.40;2.90;;;4.80;98.00;;;;;;5032121;28;20339;-32
2023/04/04 02:59:06;;;;;;;5.90;2.83;;;4.70;98.00;;;;;;5048634;28;20253;-33
2023/04/04 03:01:38;;;;;;;5.77;2.80;;;4.70;98.00;;;;;;5050253;28;20200;-32
2023/04/04 03:04:08;;;;;;;5.13;2.80;;;4.80;98.00;;;;;;5049864;28;20718;-32
2023/04/04 03:06:40;;;;;;;5.93;2.20;;;4.70;97.90;;;;;;5048374;28;20204;-32
2023/04/04 03:09:09;;;;;;;3.53;2.30;;;4.70;97.90;;;;;;5049886;28;20239;-33
2023/04/04 03:11:39;;;;;;;3.73;1.93;;;4.70;97.90;;;;;;5032342;28;20303;-32
2023/04/04 03:14:10;;;;;;;4.37;1.90;;;4.60;97.80;;;;;;5048412;28;20204;-32
2023/04/04 03:16:38;;;;;;;4.07;2.07;;;4.60;97.90;;;;;;5049124;28;20228;-33
2023/04/04 03:19:06;;;;;;;5.50;2.37;;;4.60;97.90;;;;;;5049132;28;20200;-34
2023/04/04 03:21:35;;;;;;;7.27;2.07;;;4.60;97.80;;;;;;5049251;28;20683;-33
2023/04/04 03:24:07;;;;;;;3.67;2.07;;;4.50;97.80;;;;;;5049513;28;20646;-33
2023/04/04 03:26:34;;;;;;;4.73;2.40;;;4.50;97.80;;;;;;5047545;28;20254;-32
2023/04/04 03:29:03;;;;;;;3.87;1.97;;;4.50;97.80;;;;;;5031331;28;20215;-32
2023/04/04 03:31:32;;;;;;;5.60;2.30;;;4.50;97.80;;;;;;5031266;28;20479;-32
2023/04/04 03:34:03;;;;;;;4.33;2.03;;;4.50;97.80;;;;;;5047929;28;20289;-32
2023/04/04 03:36:36;;;;;;;4.37;2.50;;;4.50;97.80;;;;;;5049162;28;20208;-33
2023/04/04 03:39:03;;;;;;;3.90;2.10;;;4.50;97.80;;;;;;5031366;28;20200;-33
2023/04/04 03:41:37;;;;;;;4.80;2.50;;;4.40;97.80;;;;;;5048794;28;20745;-32
2023/04/04 03:44:04;;;;;;;5.87;2.00;;;4.50;97.80;;;;;;5047260;28;20199;-32
2023/04/04 03:46:31;;;;;;;3.17;2.10;;;4.40;97.80;;;;;;5047171;28;20207;-32
2023/04/04 03:49:01;;;;;;;4.63;2.50;;;4.40;97.80;;;;;;5048771;28;20220;-32
2023/04/04 03:51:28;;;;;;;4.17;2.33;;;4.40;97.80;;;;;;5047087;28;20204;-33
2023/04/04 03:54:00;;;;;;;4.93;2.27;;;4.40;97.80;;;;;;5048416;28;20658;-33
2023/04/04 03:56:32;;;;;;;4.13;1.90;;;4.30;97.80;;;;;;5048300;28;20244;-33
2023/04/04 03:59:00;;;;;;;3.90;1.80;;;4.30;97.80;;;;;;5047625;28;20617;-33
2023/04/04 04:01:27;;;;;;;3.00;2.10;;;4.30;97.80;;;;;;5049026;28;20705;-33
2023/04/04 04:03:56;;;;;;;3.53;2.07;;;4.30;97.80;;;;;;5047300;28;20204;-32
2023/04/04 04:06:24;;;;;;;3.77;2.00;;;4.30;97.80;;;;;;5047009;28;20685;-33
2023/04/04 04:08:52;;;;;;;3.77;2.37;;;4.30;97.80;;;;;;5048187;28;20216;-32
2023/04/04 04:11:22;;;;;;;3.77;2.17;;;4.30;97.80;;;;;;5046733;28;20208;-32
2023/04/04 04:13:49;;;;;;;4.50;2.40;;;4.30;97.70;;;;;;5047084;28;20655;-32
2023/04/04 04:16:19;;;;;;;4.30;2.33;;;4.20;97.70;;;;;;5047716;28;20213;-32
2023/04/04 04:18:48;;;;;;;4.87;1.87;;;4.20;97.80;;;;;;5046660;28;20196;-32
2023/04/04 04:21:16;;;;;;;6.57;2.90;;;4.20;97.80;;;;;;5046603;28;20282;-32
2023/04/04 04:23:45;;;;;;;7.40;2.40;;;4.20;97.80;;;;;;5047961;28;20200;-32
2023/04/04 04:26:15;;;;;;;4.17;2.43;;;4.20;97.80;;;;;;5046306;28;20219;-33
2023/04/04 04:28:46;;;;;;;5.63;2.63;;;4.20;97.80;;;;;;5046529;28;20601;-32
2023/04/04 04:31:21;;;;;;;6.43;2.60;;;4.20;97.80;;;;;;5048278;28;20329;-32
2023/04/04 04:33:48;;;;;;;5.23;2.43;;;4.20;97.80;;;;;;5048633;28;20196;-32
2023/04/04 04:36:16;;;;;;;4.73;2.20;;;4.10;97.80;;;;;;5047888;28;20813;-33
2023/04/04 04:38:43;;;;;;;6.27;2.70;;;4.10;97.80;;;;;;5046990;28;20201;-32
2023/04/04 04:41:12;;;;;;;4.33;2.57;;;4.10;97.80;;;;;;5030821;28;20214;-32
2023/04/04 04:43:44;;;;;;;5.53;2.60;;;4.10;97.70;;;;;;5046691;28;20211;-33
2023/04/04 04:46:14;;;;;;;3.53;2.07;;;4.00;97.70;;;;;;5047066;28;20439;-32
2023/04/04 04:48:44;;;;;;;5.23;2.80;;;4.00;97.70;;;;;;5047989;28;20254;-32
2023/04/04 04:51:12;;;;;;;5.47;2.20;;;4.00;97.70;;;;;;5046316;28;20265;-32
2023/04/04 04:53:44;;;;;;;5.57;2.60;;;4.00;97.70;;;;;;5046586;28;20211;-32
2023/04/04 04:56:11;;;;;;;5.53;2.77;;;4.00;97.70;;;;;;5047286;28;20236;-33
2023/04/04 04:58:41;;;;;;;5.03;2.67;;;4.00;97.70;;;;;;5048159;28;20282;-32
2023/04/04 05:01:08;;;;;;;6.40;2.50;;;3.90;98.00;;;;;;5046250;28;20197;-33
2023/04/04 05:03:38;;;;;;;5.33;2.53;;;3.90;97.70;;;;;;5046310;28;20216;-32
2023/04/04 05:06:05;;;;;;;5.67;2.73;;;4.00;97.70;;;;;;5047836;28;20196;-33
2023/04/04 05:08:37;;;;;;;8.60;2.50;;;3.90;97.70;;;;;;5047405;28;20215;-33
2023/04/04 05:11:04;;;;;;;4.43;2.63;;;3.90;97.70;;;;;;5046084;28;20253;-31
2023/04/04 05:13:31;;;;;;;5.27;2.60;;;3.90;97.70;;;;;;5047448;28;21138;-32
2023/04/04 05:15:59;;;;;;;5.33;2.90;;;3.90;97.70;;;;;;5045808;28;20216;-31
2023/04/04 05:18:26;;;;;;;6.67;2.90;;;3.90;97.60;;;;;;5046030;28;20235;-32
2023/04/04 05:20:53;;;;;;;8.70;2.53;;;3.90;97.60;;;;;;5046044;28;20216;-31
2023/04/04 05:23:24;;;;;;;6.53;3.00;;;3.90;97.70;;;;;;5047471;28;20910;-33
2023/04/04 05:25:54;;;;;;;5.30;2.80;;;3.90;97.70;;;;;;5046212;28;20204;-33
2023/04/04 05:28:23;;;;;;;5.63;2.90;;;3.80;97.70;;;;;;5047513;28;20748;-32
2023/04/04 05:30:53;;;;;;;6.03;2.63;;;3.80;97.70;;;;;;5045948;28;20559;-33
2023/04/04 05:33:22;;;;;;;6.33;2.90;;;3.80;97.70;;;;;;5045503;28;20216;-33
2023/04/04 05:35:49;;;;;;;7.70;2.60;;;3.80;97.70;;;;;;5047350;28;20235;-32
2023/04/04 05:38:17;;;;;;;9.17;3.10;;;3.80;97.80;;;;;;5046982;28;20216;-31
2023/04/04 05:40:44;;;;;;;6.53;2.70;;;3.80;97.70;;;;;;5045527;28;20199;-32
2023/04/04 05:43:14;;;;;;;8.97;3.00;;;3.80;97.70;;;;;;5046967;28;20678;-33
2023/04/04 05:45:43;;;;;;;8.63;2.87;;;3.80;97.80;;;;;;5045834;28;20658;-32
2023/04/04 05:48:10;;;;;;;7.33;2.80;;;3.80;97.80;;;;;;5045380;28;20514;-32
2023/04/04 05:50:38;;;;;;;8.40;3.57;;;3.80;97.80;;;;;;5045818;28;20218;-32
2023/04/04 05:53:05;;;;;;;7.97;3.13;;;3.80;97.90;;;;;;5045246;28;20681;-33
2023/04/04 05:55:32;;;;;;;6.67;3.33;;;3.80;97.90;;;;;;5045026;28;20246;-32
2023/04/04 05:58:00;;;;;;;7.03;2.93;;;3.80;97.80;;;;;;5044968;28;20231;-33
2023/04/04 06:00:29;;;;;;;11.93;3.43;;;3.80;97.80;;;;;;5044800;28;20566;-32
2023/04/04 06:02:59;;;;;;;9.57;3.10;;;3.80;97.90;;;;;;5045101;28;20291;-33
2023/04/04 06:05:28;;;;;;;6.27;2.90;;;3.90;97.90;;;;;;5046717;28;20196;-33
2023/04/04 06:08:01;;;;;;;6.37;2.70;;;3.90;97.90;;;;;;5046418;28;20228;-33
2023/04/04 06:10:28;;;;;;;7.00;3.07;;;3.90;98.00;;;;;;5045209;28;20200;-35
2023/04/04 06:13:00;;;;;;;11.90;4.03;;;3.90;97.90;;;;;;5044796;28;20608;-35
2023/04/04 06:15:29;;;;;;;8.83;3.30;;;3.90;97.90;;;;;;5046338;28;20197;-32
2023/04/04 06:17:56;;;;;;;7.43;3.27;;;3.90;98.00;;;;;;5045002;28;20576;-32
2023/04/04 06:20:28;;;;;;;8.80;2.90;;;3.90;98.00;;;;;;5044998;28;20243;-32
2023/04/04 06:22:59;;;;;;;5.50;2.77;;;3.90;98.00;;;;;;5046362;28;20258;-33
2023/04/04 06:25:30;;;;;;;7.17;2.60;;;4.00;98.00;;;;;;5046174;28;20615;-32
2023/04/04 06:27:59;;;;;;;7.03;3.27;;;4.00;98.00;;;;;;5046444;28;20223;-32
2023/04/04 06:30:28;;;;;;;6.53;3.53;;;4.00;98.10;;;;;;5044601;28;20196;-32
2023/04/04 06:32:58;;;;;;;5.50;2.90;;;4.00;98.10;;;;;;5044754;28;20754;-32
2023/04/04 06:35:25;;;;;;;9.27;3.50;;;4.10;98.20;;;;;;5045849;28;20200;-33
2023/04/04 06:37:58;;;;;;;8.77;4.10;;;4.10;98.20;;;;;;5046679;28;20316;-32
2023/04/04 06:40:25;;;;;;;8.17;4.07;;;4.20;98.30;;;;;;5044809;28;20223;-32
2023/04/04 06:42:57;;;;;;;7.30;3.73;;;4.20;98.30;;;;;;5044658;28;20204;-32
2023/04/04 06:45:31;;;;;;;8.43;3.67;;;4.20;98.20;;;;;;5045969;28;20200;-33
2023/04/04 06:47:59;;;;;;;9.57;3.60;;;4.20;98.60;;;;;;5046103;28;20298;-32
2023/04/04 06:50:29;;;;;;;5.93;3.70;;;4.20;98.30;;;;;;5027868;28;20694;-32
2023/04/04 06:52:59;;;;;;;6.70;2.97;;;4.20;98.40;;;;;;5028200;28;20204;-33
2023/04/04 06:55:26;;;;;;;5.90;3.17;;;4.20;98.30;;;;;;5043910;28;20235;-32
2023/04/04 06:57:56;;;;;;;5.50;3.23;;;4.30;98.40;;;;;;5044366;28;20251;-33
2023/04/04 07:00:23;;;;;;;7.07;3.37;;;4.40;98.40;;;;;;5044315;28;20675;-32
2023/04/04 07:03:02;;;;;;;6.67;3.40;;;4.40;98.40;;;;;;5043730;28;20679;-33
2023/04/04 07:05:30;;;;;;;5.27;3.00;;;4.40;98.40;;;;;;5045468;28;20666;-32
2023/04/04 07:08:00;;;;;;;6.87;3.27;;;4.50;98.50;;;;;;5045693;28;20196;-32
2023/04/04 07:10:27;;;;;;;4.50;2.40;;;4.50;98.50;;;;;;5045935;28;20279;-32
2023/04/04 07:12:54;;;;;;;6.93;3.57;;;4.60;98.50;;;;;;5044184;28;20748;-35
2023/04/04 07:15:24;;;;;;;6.07;3.10;;;4.60;98.50;;;;;;5044360;28;20307;-33
2023/04/04 07:17:51;;;;;;;9.07;3.47;;;4.60;98.50;;;;;;5045665;28;20707;-32
2023/04/04 07:20:21;;;;;;;5.33;2.97;;;4.70;98.60;;;;;;5044365;28;20193;-33
2023/04/04 07:22:50;;;;;;;6.50;3.07;;;4.70;98.60;;;;;;5044052;28;20241;-33
2023/04/04 07:25:20;;;;;;;4.70;2.87;;;4.80;98.70;;;;;;5045802;28;20218;-33
2023/04/04 07:27:47;;;;;;;5.33;2.90;;;4.80;98.70;;;;;;5046233;28;20200;-33
2023/04/04 07:30:17;;;;;;;5.80;2.87;;;4.90;98.70;;;;;;5043763;28;20812;-33
2023/04/04 07:32:44;;;;;;;11.03;2.83;;;4.90;98.70;;;;;;5046712;28;20204;-33
2023/04/04 07:35:16;;;;;;;6.93;2.93;;;5.00;98.60;;;;;;5031226;28;20766;-33
2023/04/04 07:37:53;;;;;;;5.17;2.80;;;5.00;98.70;;;;;;5049212;28;20254;-33
2023/04/04 07:40:23;;;;;;;3.60;2.43;;;5.00;98.70;;;;;;5048957;28;20215;-34
2023/04/04 07:42:53;;;;;;;4.00;2.57;;;5.10;98.70;;;;;;5047714;28;20709;-33
2023/04/04 07:45:23;;;;;;;9.23;3.00;;;5.10;98.70;;;;;;5047433;28;20292;-33
2023/04/04 07:47:50;;;;;;;6.57;2.73;;;5.10;98.60;;;;;;5047497;28;20208;-33
2023/04/04 07:50:22;;;;;;;4.40;2.57;;;5.20;98.60;;;;;;5048829;28;20545;-33
2023/04/04 07:52:51;;;;;;;4.73;2.90;;;5.20;98.70;;;;;;5048924;28;20204;-34
2023/04/04 07:55:19;;;;;;;5.90;2.30;;;5.30;98.80;;;;;;5030859;28;20246;-33
2023/04/04 07:57:46;;;;;;;4.27;2.17;;;5.30;98.80;;;;;;5030896;28;20247;-33
2023/04/04 08:00:20;;;;;;;4.93;2.63;;;5.30;98.80;;;;;;5015054;28;20216;-33
2023/04/04 08:02:55;;;;;;;4.27;2.70;;;5.40;98.80;;;;;;5048529;28;20196;-33
2023/04/04 08:05:27;;;;;;;6.87;2.37;;;5.40;98.80;;;;;;5048570;28;20314;-33
2023/04/04 08:07:54;;;;;;;4.83;2.43;;;5.50;98.80;;;;;;5048594;28;20208;-33
2023/04/04 08:10:24;;;;;;;4.57;2.30;;;5.50;98.60;;;;;;5048573;28;20196;-33
2023/04/04 08:12:56;;;;;;;3.97;1.90;;;5.60;98.70;;;;;;5048895;28;20208;-33
2023/04/04 08:15:26;;;;;;;3.93;2.30;;;5.60;98.70;;;;;;5047490;28;20212;-33
2023/04/04 08:17:54;;;;;;;4.53;2.13;;;5.70;98.80;;;;;;5046894;28;20248;-33
2023/04/04 08:20:24;;;;;;;4.43;2.23;;;5.70;98.90;;;;;;5049042;28;20206;-33
2023/04/04 08:22:55;;;;;;;5.30;1.90;;;5.80;99.00;;;;;;5031055;28;20200;-32
2023/04/04 08:25:24;;;;;;;5.43;2.13;;;5.80;99.00;;;;;;5046750;28;20212;-33
2023/04/04 08:27:53;;;;;;;4.53;2.20;;;5.90;99.00;;;;;;5046705;28;20204;-33
2023/04/04 08:30:23;;;;;;;5.83;1.60;;;5.90;99.00;;;;;;5046730;28;20299;-33
2023/04/04 08:32:50;;;;;;;3.87;1.93;;;6.00;98.90;;;;;;5046860;28;20226;-33
2023/04/04 08:35:20;;;;;;;4.80;1.80;;;6.00;98.90;;;;;;5046987;28;20203;-33
2023/04/04 08:37:49;;;;;;;5.27;2.00;;;6.00;98.90;;;;;;5047870;28;20319;-33
2023/04/04 08:40:17;;;;;;;4.73;1.80;;;6.00;98.80;;;;;;5046357;28;20258;-33
2023/04/04 08:42:48;;;;;;;4.27;1.90;;;6.10;98.90;;;;;;5045822;28;20207;-33
2023/04/04 08:45:18;;;;;;;6.90;2.10;;;6.10;98.50;;;;;;5046333;28;20193;-34
2023/04/04 08:47:49;;;;;;;5.23;2.23;;;6.20;98.60;;;;;;5048201;28;20208;-33
2023/04/04 08:50:21;;;;;;;3.97;2.40;;;6.20;98.80;;;;;;5047903;28;20286;-33
2023/04/04 08:52:49;;;;;;;3.67;1.80;;;6.20;98.80;;;;;;5046443;28;20204;-33
2023/04/04 08:55:16;;;;;;;4.53;1.93;;;6.30;98.70;;;;;;5047747;28;20483;-33
2023/04/04 08:57:48;;;;;;;2.60;1.87;;;6.20;98.70;;;;;;5029540;28;20595;-33
2023/04/04 09:00:20;;;;;;;2.43;2.00;;;6.30;98.90;;;;;;5029992;28;20648;-33
2023/04/04 09:03:08;;;;;;;3.17;1.73;;;6.30;98.90;;;;;;5046066;28;20286;-33
2023/04/04 09:05:36;;;;;;;3.53;1.90;;;6.30;98.60;;;;;;5046297;28;20192;-33
2023/04/04 09:08:05;;;;;;;6.37;1.87;;;6.40;98.90;;;;;;5047505;28;20208;-33
2023/04/04 09:10:34;;;;;;;5.90;2.40;;;6.30;98.00;;;;;;5045825;28;20311;-33
2023/04/04 09:13:04;;;;;;;5.57;2.13;;;6.30;98.50;;;;;;5047607;28;20274;-33
2023/04/04 09:15:58;;;;;;;7.17;2.67;;;6.30;98.40;;;;;;5046458;28;20223;-36
2023/04/04 09:18:27;;;;;;;3.90;2.60;;;6.40;98.30;;;;;;5045877;28;20282;-33
2023/04/04 09:20:54;;;;;;;4.03;1.97;;;6.40;98.60;;;;;;5029689;28;20228;-33
2023/04/04 09:23:24;;;;;;;5.07;2.50;;;6.40;98.70;;;;;;5045634;28;20283;-32
2023/04/04 09:25:55;;;;;;;4.33;2.00;;;6.50;98.70;;;;;;5045095;28;20223;-32
2023/04/04 09:28:26;;;;;;;3.77;1.93;;;6.60;98.50;;;;;;5046753;28;20777;-34
2023/04/04 09:30:54;;;;;;;4.97;2.53;;;6.50;98.20;;;;;;5046384;28;20283;-33
2023/04/04 09:33:25;;;;;;;4.47;2.23;;;6.60;98.40;;;;;;5045061;28;20955;-33
2023/04/04 09:35:57;;;;;;;5.63;2.30;;;6.60;97.80;;;;;;5046586;28;20216;-33
2023/04/04 09:38:27;;;;;;;6.57;2.70;;;6.60;98.20;;;;;;5044786;28;20236;-33
2023/04/04 09:40:57;;;;;;;5.37;2.47;;;6.60;98.00;;;;;;5044651;28;20219;-33
2023/04/04 09:43:29;;;;;;;6.23;2.73;;;6.60;98.10;;;;;;5044931;28;20250;-33
2023/04/04 09:46:02;;;;;;;15.57;3.40;;;6.60;98.30;;;;;;5046001;28;20196;-33
2023/04/04 09:48:37;;;;;;;6.13;2.97;;;6.70;98.20;;;;;;5046066;28;20251;-33
2023/04/04 09:51:13;;;;;;;4.23;2.70;;;6.80;98.50;;;;;;5044571;28;20204;-33
2023/04/04 09:53:50;;;;;;;5.03;2.73;;;6.80;98.40;;;;;;5046496;28;20207;-33
2023/04/04 09:56:18;;;;;;;7.17;3.33;;;6.90;98.80;;;;;;5045743;28;20223;-34
2023/04/04 09:58:51;;;;;;;6.03;3.37;;;6.80;98.70;;;;;;5045864;28;20220;-32
2023/04/04 10:01:34;;;;;;;5.13;2.53;;;6.90;98.70;;;;;;5045036;28;20204;-36
2023/04/04 10:04:03;;;;;;;7.07;2.87;;;7.00;98.70;;;;;;5047029;28;20200;-36
2023/04/04 10:06:38;;;;;;;3.70;2.47;;;7.00;98.70;;;;;;5046847;28;20307;-36
2023/04/04 10:09:08;;;;;;;5.27;2.53;;;7.10;98.80;;;;;;5044836;28;20196;-35
2023/04/04 10:11:37;;;;;;;4.10;2.77;;;7.10;99.00;;;;;;5045123;28;20246;-36
2023/04/04 10:14:11;;;;;;;5.17;2.40;;;7.20;99.10;;;;;;5044783;28;20757;-35
2023/04/04 10:16:44;;;;;;;4.77;2.50;;;7.30;99.00;;;;;;5044946;28;20258;-35
2023/04/04 10:19:14;;;;;;;5.33;2.70;;;7.40;99.10;;;;;;5046663;28;20208;-37
2023/04/04 10:21:44;;;;;;;4.23;2.50;;;7.30;98.80;;;;;;5045960;28;20287;-35
2023/04/04 10:24:13;;;;;;;4.30;2.37;;;7.40;99.10;;;;;;5046106;28;20220;-36
2023/04/04 10:26:44;;;;;;;5.13;2.33;;;7.40;99.20;;;;;;5045805;28;20204;-36
2023/04/04 10:29:14;;;;;;;6.13;2.33;;;7.50;99.10;;;;;;5043844;28;20721;-35
2023/04/04 10:31:44;;;;;;;4.63;2.43;;;7.60;99.00;;;;;;5027387;28;20296;-36
2023/04/04 10:34:19;;;;;;;4.20;2.70;;;7.60;99.10;;;;;;5043755;28;20205;-36
2023/04/04 10:36:55;;;;;;;7.10;3.00;;;7.70;98.80;;;;;;5045815;28;20231;-36
2023/04/04 10:39:22;;;;;;;6.77;3.50;;;7.70;98.40;;;;;;5045622;28;20662;-36
2023/04/04 10:41:53;;;;;;;6.07;2.60;;;7.70;99.00;;;;;;5044540;28;20239;-36
2023/04/04 10:44:32;;;;;;;11.10;2.80;;;7.70;98.90;;;;;;5045734;28;20239;-36
2023/04/04 10:47:21;;;;;;;7.40;2.77;;;7.70;97.90;;;;;;5045444;28;20682;-36
2023/04/04 10:49:50;;;;;;;4.93;2.53;;;7.70;98.30;;;;;;5044263;28;20212;-36
2023/04/04 10:52:19;;;;;;;3.03;2.00;;;7.80;99.00;;;;;;5045533;28;20204;-36
2023/04/04 10:54:53;;;;;;;6.00;2.40;;;7.80;99.20;;;;;;5044126;28;20651;-36
2023/04/04 10:57:27;;;;;;;4.43;2.60;;;7.90;98.90;;;;;;5045356;28;20311;-36
2023/04/04 11:00:19;;;;;;;5.00;2.20;;;8.00;98.70;;;;;;5045706;28;20682;-36
2023/04/04 11:02:53;;;;;;;4.33;2.47;;;8.00;98.20;;;;;;5045704;28;20202;-36
2023/04/04 11:05:36;;;;;;;3.80;2.20;;;8.00;98.50;;;;;;5045923;28;20640;-36
2023/04/04 11:08:12;;;;;;;3.70;2.20;;;8.10;98.90;;;;;;5049082;28;20239;-36
2023/04/04 11:10:44;;;;;;;6.00;2.50;;;8.10;99.00;;;;;;5050213;28;20203;-36
2023/04/04 11:13:15;;;;;;;5.30;2.30;;;8.20;98.90;;;;;;5049927;28;20200;-36
2023/04/04 11:15:57;;;;;;;5.53;2.53;;;8.30;98.40;;;;;;5049738;28;20250;-36
2023/04/04 11:18:58;;;;;;;4.27;2.07;;;8.30;98.00;;;;;;5049506;28;20228;-36
2023/04/04 11:21:31;;;;;;;5.27;2.10;;;8.30;98.60;;;;;;5047836;28;20294;-36
2023/04/04 11:24:01;;;;;;;7.63;2.17;;;8.30;97.50;;;;;;5048011;28;20656;-36
2023/04/04 11:26:29;;;;;;;4.37;2.10;;;8.30;97.90;;;;;;5049067;28;20240;-36
2023/04/04 11:29:03;;;;;;;13.20;3.43;;;8.30;98.60;;;;;;5047497;28;20204;-36
2023/04/04 11:31:38;;;;;;;14.93;3.63;;;8.40;98.50;;;;;;5047787;28;20219;-36
2023/04/04 11:34:09;;;;;;;7.67;2.80;;;8.50;98.80;;;;;;5049076;28;20254;-36
2023/04/04 11:36:43;;;;;;;13.07;3.47;;;8.60;98.60;;;;;;5048867;28;20204;-37
2023/04/04 11:39:15;;;;;;;6.17;2.77;;;8.60;98.40;;;;;;5047423;28;20220;-37
2023/04/04 11:41:49;;;;;;;5.20;2.23;;;8.60;98.40;;;;;;5047333;28;20200;-36
2023/04/04 11:44:18;;;;;;;6.00;2.60;;;8.70;98.50;;;;;;5048566;28;20211;-36
2023/04/04 11:46:53;;;;;;;5.07;2.50;;;8.60;97.50;;;;;;5049010;28;21086;-36
2023/04/04 11:49:29;;;;;;;4.10;2.80;;;8.60;98.40;;;;;;5047713;28;20667;-36
2023/04/04 11:52:02;;;;;;;4.43;2.90;;;8.70;98.70;;;;;;5048528;28;20716;-36
2023/04/04 11:54:31;;;;;;;4.30;2.43;;;8.70;97.80;;;;;;5048786;28;20196;-35
2023/04/04 11:57:02;;;;;;;6.13;2.33;;;8.80;96.60;;;;;;5048261;28;20196;-36
2023/04/04 11:59:30;;;;;;;8.50;2.50;;;8.80;97.60;;;;;;5048526;28;20192;-36
2023/04/04 12:01:58;;;;;;;3.77;2.30;;;8.70;97.40;;;;;;5047186;28;20242;-36
2023/04/04 12:04:28;;;;;;;3.30;2.13;;;8.80;98.30;;;;;;5046930;28;20214;-36
2023/04/04 12:06:56;;;;;;;2.33;1.87;;;8.80;98.30;;;;;;5047251;28;20227;-36
2023/04/04 12:09:27;;;;;;;3.43;2.30;;;8.90;98.60;;;;;;5048439;28;20214;-36
2023/04/04 12:11:55;;;;;;;6.00;2.60;;;9.00;98.70;;;;;;5046971;28;20254;-36
2023/04/04 12:14:24;;;;;;;3.63;2.50;;;9.00;98.40;;;;;;5048196;28;20675;-36
2023/04/04 12:16:56;;;;;;;5.67;2.20;;;9.00;98.60;;;;;;5048241;28;20232;-36
2023/04/04 12:19:23;;;;;;;5.13;2.70;;;9.10;98.60;;;;;;5048095;28;20216;-36
2023/04/04 12:21:52;;;;;;;5.23;2.63;;;9.10;98.60;;;;;;5046895;28;20637;-36
2023/04/04 12:24:20;;;;;;;3.67;2.20;;;9.20;97.10;;;;;;5046858;28;20204;-32
2023/04/04 12:26:53;;;;;;;6.43;2.53;;;9.20;98.30;;;;;;5048359;28;20212;-32
2023/04/04 12:29:22;;;;;;;3.93;2.30;;;9.30;98.80;;;;;;5046732;28;20243;-33
2023/04/04 12:31:50;;;;;;;6.40;2.70;;;9.30;98.40;;;;;;5047823;28;20663;-32
2023/04/04 12:34:20;;;;;;;6.93;2.63;;;9.40;98.30;;;;;;5046195;28;20192;-32
2023/04/04 12:36:51;;;;;;;7.53;2.90;;;9.30;98.10;;;;;;5047499;28;20635;-32
2023/04/04 12:39:26;;;;;;;4.70;2.87;;;9.40;98.30;;;;;;5047714;28;20228;-32
2023/04/04 12:42:03;;;;;;;4.07;2.70;;;9.40;98.30;;;;;;5048208;28;20257;-32
2023/04/04 12:44:34;;;;;;;5.80;2.70;;;9.40;97.80;;;;;;5047989;28;20816;-32
2023/04/04 12:47:05;;;;;;;6.87;2.80;;;9.40;98.30;;;;;;5047828;28;20196;-32
2023/04/04 12:49:47;;;;;;;6.37;2.40;;;9.40;98.60;;;;;;5030569;28;20203;-33
2023/04/04 12:52:22;;;;;;;6.23;2.40;;;9.50;98.70;;;;;;5048041;28;20195;-32
2023/04/04 12:54:59;;;;;;;4.37;2.70;;;9.50;98.80;;;;;;5046380;28;20244;-32
2023/04/04 12:57:49;;;;;;;5.10;2.90;;;9.60;98.60;;;;;;5047832;28;20314;-34
2023/04/04 13:00:18;;;;;;;4.90;2.40;;;9.70;98.30;;;;;;5048464;28;20265;-33
2023/04/04 13:02:49;;;;;;;3.47;2.30;;;9.70;98.80;;;;;;5029903;28;20242;-35
2023/04/04 13:05:21;;;;;;;5.30;2.83;;;9.70;98.50;;;;;;5045998;28;20196;-35
2023/04/04 13:08:05;;;;;;;6.03;2.97;;;9.80;98.20;;;;;;5045790;28;20199;-34
2023/04/04 13:11:07;;;;;;;4.27;2.43;;;9.80;98.70;;;;;;5046514;28;20487;-35
2023/04/04 13:13:42;;;;;;;4.37;2.83;;;9.90;99.00;;;;;;5046006;28;20573;-34
2023/04/04 13:16:13;;;;;;;7.70;2.77;;;9.90;98.20;;;;;;5047787;28;20278;-34